Time;durP1;ratioP1;P1;durP2;ratioP2;P2;SDS_P1;SDS_P2;PMS_P1;PMS_P2;Temp;Humidity;BMP_temperature;BMP_pressure;BME280_temperature;BME280_humidity;BME280_pressure;Samples;Min_cycle;Max_cycle;Signal;HPM_P1;HPM_P2
2021/08/10 00:00:57;;;;;;;13.55;7.78;;;;;;;25.39;67.53;100329.16;1691901;85;21201;-58
2021/08/10 00:04:03;;;;;;;12.80;7.65;;;;;;;25.36;67.71;100333.36;1692215;85;21726;-58
2021/08/10 00:07:10;;;;;;;14.20;8.23;;;;;;;25.36;68.00;100338.11;1692158;84;21214;-59
2021/08/10 00:10:16;;;;;;;27.95;8.08;;;;;;;25.34;67.92;100338.39;1630190;87;21237;-59
2021/08/10 00:13:25;;;;;;;15.95;8.13;;;;;;;25.35;67.86;100338.70;1692045;84;21229;-59
2021/08/10 00:16:31;;;;;;;13.65;8.38;;;;;;;25.35;67.82;100333.64;1692084;85;21241;-59
2021/08/10 00:19:38;;;;;;;11.28;7.55;;;;;;;25.35;67.78;100330.28;1691771;85;21215;-57
2021/08/10 00:22:44;;;;;;;17.35;8.63;;;;;;;25.36;67.75;100329.16;1692117;85;21208;-59
2021/08/10 00:25:50;;;;;;;10.85;7.72;;;;;;;25.36;67.76;100320.75;1691982;85;21225;-58
2021/08/10 00:28:56;;;;;;;11.57;7.87;;;;;;;25.33;67.77;100321.27;1692004;85;21288;-58
2021/08/10 00:32:03;;;;;;;11.73;8.25;;;;;;;25.30;67.90;100320.42;1691875;85;21253;-58
2021/08/10 00:35:09;;;;;;;13.40;8.20;;;;;;;25.28;68.00;100316.18;1692178;85;21201;-58
2021/08/10 00:38:14;;;;;;;17.70;8.05;;;;;;;25.26;68.10;100313.66;1691989;85;21209;-59
2021/08/10 00:41:21;;;;;;;16.95;8.65;;;;;;;25.23;68.21;100314.78;1678990;85;21244;-59
2021/08/10 00:44:29;;;;;;;11.22;7.42;;;;;;;25.18;68.33;100312.77;1691892;85;21213;-59
2021/08/10 00:47:35;;;;;;;12.25;8.28;;;;;;;25.16;68.42;100318.37;1691922;85;21225;-59
2021/08/10 00:50:41;;;;;;;11.60;8.48;;;;;;;25.13;68.50;100311.92;1691791;85;21220;-59
2021/08/10 00:53:46;;;;;;;12.75;8.18;;;;;;;25.11;68.59;100315.55;1691989;82;21296;-57
2021/08/10 00:56:53;;;;;;;14.23;8.48;;;;;;;25.11;68.60;100308.54;1696815;84;21422;-58
2021/08/10 01:00:00;;;;;;;20.20;8.40;;;;;;;25.09;68.66;100310.22;1696567;84;21276;-57
2021/08/10 01:03:07;;;;;;;11.18;8.10;;;;;;;25.08;68.71;100313.56;1696709;84;21415;-57
2021/08/10 01:06:18;;;;;;;14.68;8.80;;;;;;;25.07;68.77;100309.64;1696851;84;21403;-57
2021/08/10 01:09:31;;;;;;;20.68;8.80;;;;;;;25.07;68.84;100313.02;1696810;84;21284;-58
2021/08/10 01:12:39;;;;;;;14.75;8.60;;;;;;;25.06;68.90;100313.56;1696853;84;21818;-57
2021/08/10 01:15:55;;;;;;;15.48;8.28;;;;;;;25.02;68.95;100320.27;1696724;84;21958;-58
2021/08/10 01:19:11;;;;;;;11.00;7.42;;;;;;;25.00;69.05;100318.31;1697178;84;21228;-58
2021/08/10 01:22:16;;;;;;;13.03;8.43;;;;;;;24.98;69.14;100319.13;1696750;84;21363;-58
2021/08/10 01:25:35;;;;;;;14.47;8.43;;;;;;;24.96;69.23;100315.75;1697019;84;21355;-57
2021/08/10 01:29:01;;;;;;;14.35;9.83;;;;;;;24.95;69.26;100316.02;1696916;84;21339;-57
2021/08/10 01:32:08;;;;;;;14.95;8.78;;;;;;;24.95;69.27;100306.22;1696812;84;21232;-57
2021/08/10 01:35:14;;;;;;;12.33;8.65;;;;;;;24.95;69.26;100309.88;1696765;84;21410;-57
2021/08/10 01:38:21;;;;;;;15.35;9.38;;;;;;;24.94;69.26;100309.56;1680439;84;21911;-57
2021/08/10 01:41:28;;;;;;;12.50;8.85;;;;;;;24.92;69.28;100316.57;1682020;84;21364;-58
2021/08/10 01:44:35;;;;;;;11.85;8.43;;;;;;;24.92;69.30;100312.38;1696582;84;21216;-58
2021/08/10 01:47:41;;;;;;;14.43;8.78;;;;;;;24.89;69.33;100309.53;1696709;84;21233;-57
2021/08/10 01:50:48;;;;;;;11.78;8.45;;;;;;;24.89;69.39;100313.73;1694131;84;21241;-58
2021/08/10 01:53:54;;;;;;;12.98;8.68;;;;;;;24.84;69.42;100306.73;1679543;84;21229;-57
2021/08/10 01:56:59;;;;;;;17.85;9.20;;;;;;;24.84;69.46;100310.08;1625375;87;21282;-58
2021/08/10 02:00:08;;;;;;;16.95;8.93;;;;;;;24.81;69.54;100300.27;1638737;87;21223;-57
2021/08/10 02:03:16;;;;;;;12.23;8.55;;;;;;;24.80;69.62;100302.77;1650515;87;21918;-58
2021/08/10 02:06:25;;;;;;;20.05;8.78;;;;;;;24.78;69.68;100311.98;1636647;87;21957;-58
2021/08/10 02:09:33;;;;;;;14.38;9.28;;;;;;;24.75;69.78;100316.73;1637850;86;21255;-59
2021/08/10 02:12:43;;;;;;;15.78;8.60;;;;;;;24.73;69.84;100313.38;1636903;87;21295;-60
2021/08/10 02:15:52;;;;;;;16.50;9.38;;;;;;;24.72;69.87;100317.27;1625223;87;21274;-59
2021/08/10 02:18:58;;;;;;;14.00;9.00;;;;;;;24.72;69.94;100315.05;1641228;87;21266;-59
2021/08/10 02:22:19;;;;;;;12.90;8.75;;;;;;;24.68;70.00;100314.74;1639128;87;21378;-56
2021/08/10 02:25:31;;;;;;;15.60;9.10;;;;;;;24.69;70.03;100305.77;1639010;87;21274;-58
2021/08/10 02:28:36;;;;;;;12.85;8.75;;;;;;;24.67;70.08;100306.03;1638751;87;21298;-59
2021/08/10 02:31:43;;;;;;;13.60;8.60;;;;;;;24.65;70.11;100308.80;1638859;87;21266;-59
2021/08/10 02:34:50;;;;;;;10.82;8.90;;;;;;;24.64;70.18;100307.12;1638866;87;21242;-59
2021/08/10 02:37:56;;;;;;;10.00;8.68;;;;;;;24.64;70.18;100309.34;1638721;87;21752;-60
2021/08/10 02:41:05;;;;;;;11.80;8.55;;;;;;;24.63;70.22;100310.47;1638859;87;21298;-58
2021/08/10 02:44:14;;;;;;;11.00;8.30;;;;;;;24.64;70.25;100312.72;1638642;87;21759;-59
2021/08/10 02:47:21;;;;;;;11.83;8.65;;;;;;;24.63;70.28;100307.67;1624768;87;21306;-60
2021/08/10 02:50:27;;;;;;;16.40;8.80;;;;;;;24.63;70.33;100299.81;1638463;87;21254;-58
2021/08/10 02:53:36;;;;;;;17.00;8.75;;;;;;;24.62;70.36;100307.39;1638660;87;21318;-60
2021/08/10 02:56:48;;;;;;;15.15;8.70;;;;;;;24.63;70.40;100313.81;1639181;85;21393;-57
2021/08/10 03:00:00;;;;;;;13.50;8.73;;;;;;;24.61;70.46;100312.69;1637235;87;21254;-58
2021/08/10 03:03:09;;;;;;;13.10;9.10;;;;;;;24.59;70.52;100306.50;1637294;87;21351;-61
2021/08/10 03:06:16;;;;;;;13.53;9.00;;;;;;;24.58;70.59;100310.42;1619556;87;21587;-59
2021/08/10 03:09:21;;;;;;;17.05;9.70;;;;;;;24.58;70.67;100305.37;1688472;84;21367;-55
2021/08/10 03:12:30;;;;;;;13.72;8.38;;;;;;;24.56;70.74;100304.24;1689753;84;21384;-58
2021/08/10 03:15:37;;;;;;;11.85;8.43;;;;;;;24.56;70.76;100307.63;1700013;84;21391;-58
2021/08/10 03:18:43;;;;;;;9.75;8.43;;;;;;;24.55;70.83;100313.77;1699873;84;21269;-59
2021/08/10 03:21:52;;;;;;;17.73;9.03;;;;;;;24.53;70.89;100322.98;1699941;84;21382;-59
2021/08/10 03:24:58;;;;;;;11.57;8.30;;;;;;;24.54;70.98;100317.69;1699876;84;21426;-60
2021/08/10 03:28:04;;;;;;;14.43;9.23;;;;;;;24.53;70.96;100314.58;1699987;84;21920;-60
2021/08/10 03:31:09;;;;;;;16.70;8.95;;;;;;;24.55;70.98;100320.77;1678432;84;21741;-59
2021/08/10 03:34:16;;;;;;;14.33;9.00;;;;;;;24.57;70.97;100314.34;1672290;84;21375;-60
2021/08/10 03:37:23;;;;;;;14.28;8.90;;;;;;;24.58;71.00;100317.42;1691561;83;21284;-60
2021/08/10 03:40:28;;;;;;;11.53;9.18;;;;;;;24.59;70.91;100322.48;1705152;84;21858;-59
2021/08/10 03:43:35;;;;;;;14.95;9.60;;;;;;;24.56;70.88;100319.64;1703996;84;21224;-58
2021/08/10 03:46:43;;;;;;;14.28;9.20;;;;;;;24.56;70.90;100321.62;1699987;84;21979;-63
2021/08/10 03:49:50;;;;;;;12.45;9.98;;;;;;;24.53;70.98;100319.36;1700004;84;21352;-59
2021/08/10 03:52:59;;;;;;;13.93;9.63;;;;;;;24.51;71.05;100318.23;1682222;84;21374;-57
2021/08/10 03:56:04;;;;;;;15.55;9.93;;;;;;;24.51;71.15;100320.17;1699971;84;21387;-60
2021/08/10 03:59:11;;;;;;;13.10;8.98;;;;;;;24.50;71.15;100315.13;1703845;83;21264;-59
2021/08/10 04:02:16;;;;;;;17.60;9.85;;;;;;;24.50;71.27;100313.72;1701072;84;21237;-58
2021/08/10 04:05:22;;;;;;;11.43;9.23;;;;;;;24.50;71.32;100310.92;1699924;84;21426;-56
2021/08/10 04:08:27;;;;;;;15.88;9.20;;;;;;;24.50;71.29;100316.52;1636870;87;21211;-59
2021/08/10 04:11:33;;;;;;;12.70;8.80;;;;;;;24.50;71.32;100312.32;1689903;84;21390;-57
2021/08/10 04:14:41;;;;;;;16.40;9.68;;;;;;;24.52;71.41;100310.66;1699871;84;21359;-60
2021/08/10 04:17:48;;;;;;;12.82;9.65;;;;;;;24.54;71.45;100310.69;1699856;84;21241;-57
2021/08/10 04:20:55;;;;;;;16.42;9.58;;;;;;;24.58;71.46;100310.42;1699830;84;21256;-59
2021/08/10 04:24:05;;;;;;;17.95;10.13;;;;;;;24.61;71.40;100309.06;1699861;84;21840;-58
2021/08/10 04:27:12;;;;;;;14.53;9.65;;;;;;;24.65;71.39;100319.45;1699850;84;21343;-57
2021/08/10 04:30:20;;;;;;;15.45;10.13;;;;;;;24.66;71.24;100316.95;1699767;84;21453;-57
2021/08/10 04:33:26;;;;;;;13.25;9.63;;;;;;;24.68;71.25;100316.14;1699761;84;21371;-60
2021/08/10 04:36:31;;;;;;;14.60;9.73;;;;;;;24.70;71.31;100315.33;1699846;84;21418;-57
2021/08/10 04:39:39;;;;;;;15.05;9.10;;;;;;;24.71;71.04;100314.75;1678826;84;21880;-57
2021/08/10 04:42:49;;;;;;;16.57;10.05;;;;;;;24.71;70.99;100314.75;1655108;85;21217;-60
2021/08/10 04:45:57;;;;;;;19.48;9.85;;;;;;;24.73;70.93;100321.78;1692228;84;21257;-59
2021/08/10 04:49:05;;;;;;;17.52;10.63;;;;;;;24.77;70.80;100320.66;1691957;85;21298;-60
2021/08/10 04:52:09;;;;;;;20.02;9.48;;;;;;;24.80;70.74;100316.77;1688606;85;21895;-62
2021/08/10 05:19:35;;;;;;;18.35;10.35;;;;;;;25.71;67.44;100297.04;1786109;77;28587;-55
2021/08/10 05:22:44;;;;;;;16.93;9.60;;;;;;;25.63;67.20;100301.78;1808978;79;21668;-57
2021/08/10 05:25:52;;;;;;;13.50;8.85;;;;;;;25.57;67.25;100304.84;1723417;82;21735;-58
2021/08/10 05:28:58;;;;;;;12.40;8.75;;;;;;;25.53;67.17;100302.33;1745985;81;22052;-57
2021/08/10 05:32:04;;;;;;;12.07;9.55;;;;;;;25.50;67.13;100301.47;1773614;81;21179;-58
2021/08/10 05:35:12;;;;;;;14.53;9.73;;;;;;;25.46;67.19;100301.17;1774140;81;21926;-58
2021/08/10 05:38:18;;;;;;;13.32;8.43;;;;;;;25.44;67.13;100299.20;1774409;81;21854;-57
2021/08/10 05:41:27;;;;;;;14.65;8.18;;;;;;;25.42;67.10;100293.59;1767163;81;21215;-56
2021/08/10 05:44:34;;;;;;;10.75;8.48;;;;;;;25.43;67.12;100292.47;1792410;79;21751;-57
2021/08/10 05:47:41;;;;;;;13.05;9.38;;;;;;;25.45;67.09;100291.64;1792464;79;21396;-61
2021/08/10 05:50:48;;;;;;;19.45;10.10;;;;;;;25.44;67.01;100295.54;1773034;81;21195;-57
2021/08/10 05:53:56;;;;;;;15.23;8.73;;;;;;;25.47;66.99;100296.39;1772479;81;21223;-58
2021/08/10 05:57:02;;;;;;;12.18;8.38;;;;;;;25.52;66.96;100294.45;1772100;81;21238;-57
2021/08/10 06:00:07;;;;;;;12.88;8.38;;;;;;;25.58;66.68;100288.29;1761852;81;21405;-56
2021/08/10 06:03:11;;;;;;;17.20;9.10;;;;;;;25.67;66.79;100298.70;1761837;81;21196;-57
2021/08/10 06:06:17;;;;;;;18.70;9.10;;;;;;;25.77;66.45;100295.07;1748069;81;21181;-56
2021/08/10 06:09:24;;;;;;;17.80;9.63;;;;;;;25.80;66.07;100294.55;1743547;81;21215;-56
2021/08/10 06:12:33;;;;;;;12.98;9.08;;;;;;;25.85;65.83;100297.33;1754477;81;21535;-56
2021/08/10 06:15:40;;;;;;;14.75;9.20;;;;;;;25.91;65.58;100294.27;1729230;83;21215;-57
2021/08/10 06:18:46;;;;;;;15.48;9.13;;;;;;;25.98;65.32;100289.23;1732017;80;21200;-58
2021/08/10 06:21:52;;;;;;;17.80;10.28;;;;;;;26.08;65.06;100289.29;1742032;81;21395;-58
2021/08/10 06:24:58;;;;;;;13.08;8.13;;;;;;;26.15;64.43;100296.85;1757811;81;21352;-57
2021/08/10 06:28:06;;;;;;;11.57;8.33;;;;;;;26.20;64.22;100303.02;1767983;80;21211;-56
2021/08/10 06:31:13;;;;;;;13.93;8.03;;;;;;;26.24;63.95;100288.14;1756787;81;21242;-58
2021/08/10 06:34:22;;;;;;;17.32;9.20;;;;;;;26.30;63.71;100287.60;1741985;81;21729;-57
2021/08/10 06:37:32;;;;;;;11.05;7.87;;;;;;;26.35;63.35;100289.01;1710977;82;21199;-57
2021/08/10 06:40:42;;;;;;;10.53;8.30;;;;;;;26.39;62.93;100288.71;1764890;80;21160;-56
2021/08/10 06:43:51;;;;;;;13.28;8.70;;;;;;;26.39;62.55;100290.97;1791169;80;21829;-56
2021/08/10 06:46:57;;;;;;;14.58;8.93;;;;;;;26.42;62.85;100284.78;1790690;80;21179;-56
2021/08/10 06:50:06;;;;;;;14.23;9.33;;;;;;;26.51;62.81;100288.42;1790505;80;21785;-56
2021/08/10 06:53:13;;;;;;;18.48;9.23;;;;;;;26.54;62.67;100287.31;1788366;79;21700;-58
2021/08/10 06:56:18;;;;;;;12.13;7.87;;;;;;;26.60;62.52;100291.79;1795670;79;21230;-59
2021/08/10 06:59:24;;;;;;;14.10;8.93;;;;;;;26.65;62.28;100293.22;1770545;79;21194;-55
2021/08/10 07:02:30;;;;;;;12.80;7.58;;;;;;;26.73;61.95;100294.05;1792606;80;21262;-55
2021/08/10 07:05:38;;;;;;;16.12;7.90;;;;;;;26.81;61.80;100293.48;1793232;80;21688;-55
2021/08/10 07:08:52;;;;;;;15.93;8.40;;;;;;;26.88;61.36;100286.98;1762385;81;21317;-56
2021/08/10 07:11:53;;;;;;;13.35;7.83;;;;;;;26.95;61.32;100288.09;1749311;81;21230;-56
2021/08/10 07:15:03;;;;;;;14.80;7.72;;;;;;;26.97;61.00;100287.25;1718464;83;21191;-56
2021/08/10 07:18:09;;;;;;;16.12;8.05;;;;;;;27.00;61.03;100286.12;1749686;79;21699;-60
2021/08/10 07:21:17;;;;;;;14.90;8.73;;;;;;;27.04;60.96;100287.22;1751561;80;21760;-58
2021/08/10 07:24:27;;;;;;;17.00;8.15;;;;;;;27.09;60.91;100287.20;1753291;81;21581;-55
2021/08/10 07:27:34;;;;;;;12.50;7.35;;;;;;;27.11;60.38;100285.52;1741435;80;21564;-62
2021/08/10 07:30:43;;;;;;;12.30;7.50;;;;;;;27.08;60.29;100277.10;1769283;79;21330;-56
2021/08/10 07:33:49;;;;;;;15.38;7.70;;;;;;;27.06;60.69;100286.38;1769622;80;21724;-57
2021/08/10 07:36:59;;;;;;;12.53;7.75;;;;;;;27.09;60.54;100278.78;1792283;79;21174;-58
2021/08/10 07:40:03;;;;;;;14.60;7.83;;;;;;;27.15;60.63;100283.80;1763077;79;21513;-56
2021/08/10 07:43:08;;;;;;;12.45;7.72;;;;;;;27.18;60.73;100288.29;1747782;80;21814;-57
2021/08/10 07:46:14;;;;;;;11.55;7.83;;;;;;;27.20;60.59;100281.83;1740330;81;22041;-58
2021/08/10 07:49:19;;;;;;;12.33;7.78;;;;;;;27.25;60.59;100270.56;1760342;81;21763;-59
2021/08/10 07:52:24;;;;;;;13.95;8.10;;;;;;;27.29;60.71;100280.13;1737847;81;21593;-56
2021/08/10 07:55:29;;;;;;;9.98;7.78;;;;;;;27.36;60.82;100276.45;1731625;80;21178;-57
2021/08/10 07:58:34;;;;;;;14.75;8.18;;;;;;;27.40;60.76;100273.91;1755720;80;21255;-56
2021/08/10 08:01:40;;;;;;;13.68;8.78;;;;;;;27.42;60.86;100280.06;1740553;82;21191;-58
2021/08/10 08:04:47;;;;;;;13.68;8.45;;;;;;;27.42;60.90;100279.50;1746687;80;21566;-58
2021/08/10 08:07:53;;;;;;;16.57;8.95;;;;;;;27.46;60.70;100281.19;1746320;80;21219;-57
2021/08/10 08:11:02;;;;;;;13.75;8.20;;;;;;;27.51;60.73;100282.57;1741941;81;21612;-55
2021/08/10 08:14:07;;;;;;;11.38;8.48;;;;;;;27.60;60.89;100278.02;1737851;82;21783;-57
2021/08/10 08:17:16;;;;;;;14.47;8.80;;;;;;;27.67;60.63;100280.77;1749660;81;21304;-57
2021/08/10 08:20:24;;;;;;;11.08;8.03;;;;;;;27.75;60.21;100275.09;1743758;81;21199;-57
2021/08/10 08:23:30;;;;;;;14.58;9.28;;;;;;;27.83;60.06;100279.55;1778830;80;21438;-57
2021/08/10 08:26:36;;;;;;;13.58;8.98;;;;;;;27.96;60.13;100278.64;1746736;82;21195;-56
2021/08/10 08:29:40;;;;;;;13.08;8.85;;;;;;;28.10;59.17;100268.42;1746211;82;21230;-58
2021/08/10 08:32:47;;;;;;;10.72;7.55;;;;;;;28.20;58.42;100268.33;1753128;80;21247;-60
2021/08/10 08:35:52;;;;;;;11.40;8.25;;;;;;;28.26;58.44;100258.72;1763032;80;21250;-57
2021/08/10 08:38:59;;;;;;;12.60;8.43;;;;;;;28.32;58.00;100263.98;1748422;82;21250;-59
2021/08/10 08:42:09;;;;;;;13.03;7.87;;;;;;;28.41;58.13;100264.20;1748577;82;21764;-57
2021/08/10 08:45:15;;;;;;;12.13;8.30;;;;;;;28.52;57.84;100269.48;1748872;82;21807;-58
2021/08/10 08:48:21;;;;;;;12.78;8.13;;;;;;;28.56;57.21;100265.52;1752884;80;21202;-58
2021/08/10 08:51:29;;;;;;;15.93;8.30;;;;;;;28.62;57.22;100258.69;1746636;81;21187;-57
2021/08/10 08:54:40;;;;;;;12.10;8.20;;;;;;;28.66;57.16;100261.17;1773669;80;21258;-57
2021/08/10 08:57:46;;;;;;;13.43;7.60;;;;;;;28.70;56.83;100255.22;1740647;82;21189;-58
2021/08/10 09:00:52;;;;;;;20.95;8.90;;;;;;;28.77;56.74;100250.05;1744629;81;21787;-57
2021/08/10 09:03:59;;;;;;;10.75;7.90;;;;;;;28.83;55.95;100250.27;1767976;81;21219;-58
2021/08/10 09:07:06;;;;;;;14.73;7.97;;;;;;;28.98;56.01;100243.06;1767400;81;21184;-56
2021/08/10 09:10:22;;;;;;;10.70;7.70;;;;;;;29.19;55.85;100243.13;1767638;81;21289;-56
2021/08/10 09:13:28;;;;;;;15.63;8.40;;;;;;;29.36;54.18;100230.76;1767758;81;21207;-57
2021/08/10 09:16:35;;;;;;;15.80;8.15;;;;;;;29.36;54.18;100230.76;1768136;81;21171;-56
2021/08/10 09:19:54;;;;;;;18.30;7.97;;;;;;;29.38;54.52;100227.07;1757584;81;21345;-57
2021/08/10 09:23:03;;;;;;;10.80;7.00;;;;;;;29.53;54.63;100236.71;1765843;80;21262;-56
2021/08/10 09:26:16;;;;;;;17.07;7.62;;;;;;;29.67;53.82;100232.61;1726639;83;21379;-57
2021/08/10 09:29:23;;;;;;;13.10;7.25;;;;;;;29.73;53.69;100233.62;1692848;84;21217;-59
2021/08/10 09:32:34;;;;;;;13.60;7.35;;;;;;;29.87;52.85;100233.70;1695534;84;21729;-58
2021/08/10 09:35:45;;;;;;;12.95;7.55;;;;;;;29.99;52.50;100230.67;1710282;83;21326;-58
2021/08/10 09:38:56;;;;;;;16.00;7.20;;;;;;;29.99;52.50;100230.67;1696358;84;21267;-56
2021/08/10 09:42:15;;;;;;;;;;;;;;;30.09;51.41;100234.75;1774112;80;21168;-57
2021/08/10 09:45:21;;;;;;;13.20;6.92;;;;;;;30.21;51.02;100222.42;1771649;81;20218;-57
2021/08/10 09:48:26;;;;;;;8.93;7.12;;;;;;;30.36;51.03;100224.14;1768848;81;21272;-56
2021/08/10 09:51:34;;;;;;;11.20;7.20;;;;;;;30.39;49.94;100237.65;1773905;80;21198;-58
2021/08/10 09:54:40;;;;;;;11.75;7.20;;;;;;;30.37;49.40;100237.11;1773795;81;21215;-57
2021/08/10 09:57:48;;;;;;;19.00;7.12;;;;;;;30.23;49.88;100241.88;1773417;80;21211;-57
2021/08/10 10:01:01;;;;;;;9.83;7.15;;;;;;;30.12;50.51;100227.08;1696117;84;21197;-57
2021/08/10 10:04:25;;;;;;;11.50;7.30;;;;;;;30.09;51.00;100232.49;1765817;81;21196;-56
2021/08/10 10:07:32;;;;;;;10.93;6.85;;;;;;;30.08;51.17;100233.05;1751697;80;21244;-55
2021/08/10 10:10:40;;;;;;;11.73;7.03;;;;;;;29.97;51.23;100225.89;1741844;81;21544;-58
2021/08/10 10:13:45;;;;;;;14.07;7.65;;;;;;;29.89;51.54;100215.89;1700922;83;21186;-59
2021/08/10 10:16:58;;;;;;;15.70;7.47;;;;;;;29.82;51.49;100224.75;1710989;84;21176;-57
2021/08/10 10:20:04;;;;;;;11.28;7.75;;;;;;;29.68;51.74;100219.61;1680715;85;22056;-57
2021/08/10 10:23:11;;;;;;;15.15;7.55;;;;;;;29.63;52.10;100212.59;1683959;81;21189;-57
2021/08/10 10:26:18;;;;;;;15.95;7.83;;;;;;;29.67;52.11;100215.68;1759499;81;21361;-58
2021/08/10 10:29:23;;;;;;;10.88;6.95;;;;;;;29.72;52.49;100213.61;1749453;81;21195;-59
2021/08/10 10:32:30;;;;;;;10.70;7.40;;;;;;;29.86;52.56;100211.68;1751968;80;22024;-60
2021/08/10 10:35:39;;;;;;;14.10;7.40;;;;;;;29.86;52.56;100211.68;1754882;81;21614;-56
2021/08/10 10:38:50;;;;;;;14.10;8.18;;;;;;;29.91;52.55;100220.08;1738456;82;21256;-55
2021/08/10 10:41:58;;;;;;;12.53;7.53;;;;;;;29.93;52.19;100214.97;1756995;81;21176;-58
2021/08/10 10:45:05;;;;;;;13.00;7.62;;;;;;;29.96;52.06;100217.17;1747618;81;21200;-56
2021/08/10 10:48:35;;;;;;;13.50;7.37;;;;;;;30.04;52.20;100219.30;1782540;80;21258;-57
2021/08/10 10:51:48;;;;;;;16.55;8.65;;;;;;;30.09;51.51;100204.25;1748207;81;21732;-57
2021/08/10 10:54:55;;;;;;;14.13;8.23;;;;;;;30.09;51.75;100212.72;1740659;81;21882;-61
2021/08/10 10:58:01;;;;;;;12.35;7.83;;;;;;;30.07;51.66;100205.97;1743733;81;21212;-56
2021/08/10 11:01:25;;;;;;;14.93;8.35;;;;;;;30.06;52.02;100197.25;1791009;80;21270;-55
2021/08/10 11:04:31;;;;;;;14.65;7.90;;;;;;;30.11;52.36;100197.13;1784241;80;21264;-56
2021/08/10 11:07:56;;;;;;;17.40;8.70;;;;;;;30.17;52.51;100203.55;1769661;81;21466;-59
2021/08/10 11:11:04;;;;;;;10.30;8.18;;;;;;;30.21;52.51;100200.38;1749642;80;21686;-58
2021/08/10 11:14:10;;;;;;;13.28;8.70;;;;;;;30.17;52.09;100202.98;1740071;81;21231;-56
2021/08/10 11:17:19;;;;;;;14.70;7.70;;;;;;;30.16;52.57;100202.70;1738193;81;21861;-57
2021/08/10 11:20:34;;;;;;;13.00;8.00;;;;;;;30.20;52.05;100204.34;1769274;81;21164;-58
2021/08/10 11:23:42;;;;;;;13.35;7.58;;;;;;;30.29;51.56;100187.81;1768926;81;21188;-59
2021/08/10 11:26:49;;;;;;;16.00;8.00;;;;;;;30.54;51.39;100195.81;1728064;82;21579;-57
2021/08/10 11:29:56;;;;;;;11.08;7.87;;;;;;;30.78;50.70;100190.00;1704665;82;21279;-56
2021/08/10 11:33:02;;;;;;;10.63;7.95;;;;;;;31.02;50.04;100178.47;1705862;82;21728;-56
2021/08/10 11:36:29;;;;;;;14.23;8.78;;;;;;;31.27;49.37;100177.95;1733774;82;21184;-58
2021/08/10 11:39:35;;;;;;;15.85;8.18;;;;;;;31.49;48.56;100169.54;1713551;82;21202;-55
2021/08/10 11:42:41;;;;;;;13.90;8.55;;;;;;;31.63;47.97;100164.66;1718034;81;21780;-57
2021/08/10 11:45:47;;;;;;;18.82;9.35;;;;;;;31.72;48.27;100156.50;1728561;82;21347;-55
2021/08/10 11:49:03;;;;;;;14.33;8.90;;;;;;;31.77;47.43;100151.29;1737824;81;21871;-56
2021/08/10 11:52:10;;;;;;;14.78;8.68;;;;;;;31.82;47.97;100159.09;1715925;83;21193;-57
2021/08/10 11:55:16;;;;;;;14.80;9.23;;;;;;;31.89;47.44;100141.66;1714648;83;21297;-56
2021/08/10 11:58:21;;;;;;;9.83;8.43;;;;;;;31.90;47.50;100144.77;1688215;83;21243;-56
2021/08/10 12:01:29;;;;;;;13.03;8.98;;;;;;;31.91;47.92;100148.69;1720379;82;21209;-55
2021/08/10 12:04:38;;;;;;;11.68;8.50;;;;;;;31.89;47.47;100159.50;1734817;81;21223;-55
2021/08/10 12:07:46;;;;;;;12.43;8.30;;;;;;;31.90;47.46;100164.59;1741712;82;21166;-55
2021/08/10 12:10:51;;;;;;;19.15;9.00;;;;;;;31.96;47.29;100177.45;1735180;81;21211;-56
2021/08/10 12:13:56;;;;;;;13.18;8.85;;;;;;;32.05;47.04;100181.78;1701691;82;21623;-56
2021/08/10 12:17:19;;;;;;;14.65;8.70;;;;;;;32.14;46.68;100192.59;1743906;81;21241;-58
2021/08/10 12:20:24;;;;;;;14.50;8.28;;;;;;;32.22;46.40;100191.24;1743742;82;21327;-56
2021/08/10 12:23:31;;;;;;;16.97;8.68;;;;;;;32.28;46.57;100187.67;1743164;82;21789;-57
2021/08/10 12:26:38;;;;;;;20.10;9.23;;;;;;;32.43;46.64;100191.57;1751918;81;21215;-57
2021/08/10 12:29:47;;;;;;;10.35;8.58;;;;;;;32.47;45.69;100186.34;1739939;81;21318;-58
2021/08/10 12:32:52;;;;;;;17.75;9.13;;;;;;;32.33;46.04;100188.39;1758677;81;21239;-57
2021/08/10 12:36:08;;;;;;;14.47;8.38;;;;;;;32.24;46.32;100178.98;1758641;81;21744;-55
2021/08/10 12:39:15;;;;;;;13.03;8.80;;;;;;;32.16;46.56;100172.67;1742041;81;21928;-57
2021/08/10 12:42:23;;;;;;;24.37;8.78;;;;;;;32.12;47.32;100187.81;1769823;81;21172;-54
2021/08/10 12:45:39;;;;;;;24.12;8.80;;;;;;;32.11;45.54;100171.98;1735941;81;21187;-58
2021/08/10 12:48:46;;;;;;;24.67;8.50;;;;;;;31.95;45.39;100169.53;1772148;81;21429;-57
2021/08/10 12:52:12;;;;;;;22.55;8.53;;;;;;;32.00;45.19;100160.91;1771792;80;21384;-57
2021/08/10 12:55:21;;;;;;;21.87;9.33;;;;;;;32.21;45.49;100144.21;1770208;80;21207;-55
2021/08/10 12:58:29;;;;;;;14.05;8.08;;;;;;;32.50;44.90;100148.83;1766391;81;21413;-57
2021/08/10 13:01:49;;;;;;;12.65;7.55;;;;;;;32.71;43.24;100151.92;1771131;81;21196;-57
2021/08/10 13:05:13;;;;;;;14.00;8.20;;;;;;;32.75;41.50;100153.77;1791278;80;21207;-57
2021/08/10 13:08:21;;;;;;;14.03;8.13;;;;;;;32.71;40.78;100148.52;1766677;80;21979;-57
2021/08/10 13:11:30;;;;;;;14.35;7.85;;;;;;;32.60;40.57;100135.77;1755322;81;21202;-57
2021/08/10 13:14:37;;;;;;;17.07;7.62;;;;;;;32.52;40.16;100128.09;1791339;79;21717;-56
2021/08/10 13:17:49;;;;;;;16.17;7.15;;;;;;;32.47;38.61;100123.98;1771803;81;21716;-57
2021/08/10 13:21:04;;;;;;;6.70;5.87;;;;;;;32.36;37.76;100119.72;1772334;81;21834;-58
2021/08/10 13:24:15;;;;;;;10.82;6.95;;;;;;;32.27;37.98;100124.48;1772124;81;21196;-57
2021/08/10 13:27:24;;;;;;;10.72;6.67;;;;;;;32.15;38.35;100127.67;1767537;81;21345;-58
2021/08/10 13:30:34;;;;;;;11.97;6.87;;;;;;;32.13;39.05;100123.74;1772100;80;21160;-56
2021/08/10 13:33:39;;;;;;;11.83;7.22;;;;;;;32.18;38.94;100132.11;1766380;81;21413;-57
2021/08/10 13:36:44;;;;;;;16.70;7.83;;;;;;;32.21;39.23;100137.12;1791309;80;21202;-56
2021/08/10 13:39:51;;;;;;;11.85;7.33;;;;;;;32.19;39.30;100139.44;1771786;81;21254;-56
2021/08/10 13:43:01;;;;;;;15.88;7.80;;;;;;;32.03;39.48;100135.37;1791819;80;21309;-58
2021/08/10 13:46:10;;;;;;;11.83;7.55;;;;;;;31.82;39.28;100135.59;1771902;81;21239;-56
2021/08/10 13:49:19;;;;;;;15.65;7.90;;;;;;;31.59;39.86;100122.57;1791975;80;21219;-56
2021/08/10 13:52:28;;;;;;;15.40;8.53;;;;;;;31.37;40.54;100132.45;1772140;81;21192;-58
2021/08/10 13:55:33;;;;;;;14.35;7.62;;;;;;;31.14;40.89;100134.38;1789213;80;21223;-57
2021/08/10 13:58:42;;;;;;;17.27;7.90;;;;;;;30.95;40.84;100139.91;1744089;81;21728;-57
2021/08/10 14:01:55;;;;;;;12.68;7.50;;;;;;;30.70;41.59;100146.88;1741834;81;21391;-56
2021/08/10 14:04:58;;;;;;;12.78;8.60;;;;;;;30.49;42.29;100147.86;1761287;81;21480;-56
2021/08/10 14:08:04;;;;;;;23.67;8.95;;;;;;;30.28;43.04;100149.42;1770107;81;21358;-58
2021/08/10 14:11:11;;;;;;;18.42;8.68;;;;;;;30.12;43.48;100145.17;1761692;81;21329;-57
2021/08/10 14:14:18;;;;;;;14.10;8.88;;;;;;;29.85;44.77;100139.44;1788937;80;21211;-56
2021/08/10 14:17:23;;;;;;;15.88;8.30;;;;;;;29.85;44.77;100139.44;1789429;80;21707;-56
2021/08/10 14:20:30;;;;;;;16.42;9.10;;;;;;;29.63;45.76;100126.52;1790579;80;21691;-57
2021/08/10 14:23:35;;;;;;;13.38;9.20;;;;;;;29.63;45.76;100126.52;1790768;80;21215;-56
2021/08/10 14:26:41;;;;;;;11.45;9.33;;;;;;;29.56;46.80;100137.34;1791030;80;21254;-57
2021/08/10 14:29:47;;;;;;;18.87;10.30;;;;;;;29.46;47.18;100141.75;1789091;79;21715;-56
2021/08/10 14:32:53;;;;;;;14.50;9.65;;;;;;;29.31;48.31;100154.66;1792368;80;21210;-56
2021/08/10 14:35:59;;;;;;;12.07;9.23;;;;;;;29.22;48.42;100148.03;1791740;80;21918;-56
2021/08/10 14:39:05;;;;;;;17.92;10.05;;;;;;;29.22;48.42;100148.03;1791143;79;21195;-57
2021/08/10 14:42:11;;;;;;;14.75;10.05;;;;;;;29.12;48.77;100141.97;1782240;80;21231;-57
2021/08/10 14:45:17;;;;;;;17.23;10.35;;;;;;;29.01;49.22;100133.36;1791465;80;21183;-56
2021/08/10 14:48:23;;;;;;;36.20;22.50;;;;;;;28.92;49.71;100138.56;1779005;80;21195;-57